createdAt,value
2023-04-17T00:02:49.009Z,57.45
2023-04-17T00:05:54.158Z,57.58
2023-04-17T00:08:56.822Z,57.15
2023-04-17T00:11:59.670Z,56.85
2023-04-17T00:15:02.508Z,56.38
2023-04-17T00:18:05.872Z,56.41
2023-04-17T00:21:08.317Z,56.81
2023-04-17T00:24:13.135Z,56.83
2023-04-17T00:27:15.681Z,57.04
2023-04-17T00:30:18.224Z,57.09
2023-04-17T00:33:20.898Z,56.89
2023-04-17T00:36:23.834Z,56.80
2023-04-17T00:39:26.550Z,56.79
2023-04-17T00:42:29.258Z,56.29
2023-04-17T00:45:31.918Z,56.76
2023-04-17T00:48:37.314Z,56.73
2023-04-17T00:51:39.924Z,57.09
2023-04-17T00:54:42.801Z,56.77
2023-04-17T00:57:46.284Z,56.59
2023-04-17T01:00:52.000Z,57.21
2023-04-17T01:03:56.463Z,58.28
2023-04-17T01:07:00.293Z,57.72
2023-04-17T01:10:03.660Z,58.21
2023-04-17T01:13:07.912Z,58.34
2023-04-17T01:16:12.530Z,58.50
2023-04-17T01:19:16.325Z,58.31
2023-04-17T01:22:22.159Z,58.43
2023-04-17T01:25:29.417Z,59.12
2023-04-17T01:28:32.029Z,59.90
2023-04-17T01:31:34.708Z,59.11
2023-04-17T01:34:37.728Z,59.30
2023-04-17T01:37:40.402Z,59.56
2023-04-17T01:40:42.993Z,59.23
2023-04-17T01:43:47.626Z,59.50
2023-04-17T01:46:50.297Z,59.56
2023-04-17T01:49:52.759Z,59.45
2023-04-17T01:52:55.337Z,59.53
2023-04-17T01:55:58.072Z,59.62
2023-04-17T01:59:01.080Z,60.10
2023-04-17T02:02:03.890Z,60.28
2023-04-17T02:05:07.034Z,60.02
2023-04-17T02:08:09.580Z,60.16
2023-04-17T02:11:13.611Z,60.09
2023-04-17T02:14:18.309Z,60.28
2023-04-17T02:17:20.965Z,60.40
2023-04-17T02:20:23.692Z,60.65
2023-04-17T02:23:26.241Z,60.75
2023-04-17T02:26:28.738Z,60.84
2023-04-17T02:29:31.375Z,61.01
2023-04-17T02:32:34.214Z,60.71
2023-04-17T02:35:37.549Z,61.05
2023-04-17T02:38:40.066Z,61.22
2023-04-17T02:41:42.626Z,61.16
2023-04-17T02:44:46.684Z,61.39
2023-04-17T02:47:49.334Z,60.74
2023-04-17T02:50:52.460Z,60.48
2023-04-17T02:53:56.429Z,60.08
2023-04-17T02:56:59.055Z,60.39
2023-04-17T03:00:01.825Z,60.17
2023-04-17T03:03:06.387Z,60.55
2023-04-17T03:06:10.040Z,59.92
2023-04-17T03:09:14.863Z,60.05
2023-04-17T03:12:17.728Z,59.91
2023-04-17T03:15:20.447Z,60.00
2023-04-17T03:18:23.013Z,59.95
2023-04-17T03:21:26.740Z,60.39
2023-04-17T03:24:29.823Z,60.57
2023-04-17T03:27:32.452Z,60.79
2023-04-17T03:30:35.155Z,60.88
2023-04-17T03:33:41.884Z,60.82
2023-04-17T03:36:44.777Z,61.00
2023-04-17T03:39:47.256Z,60.73
2023-04-17T03:42:50.022Z,60.66
2023-04-17T03:45:52.605Z,61.32
2023-04-17T03:48:55.874Z,60.91
2023-04-17T03:51:59.206Z,61.50
2023-04-17T03:55:03.697Z,61.42
2023-04-17T03:58:06.411Z,61.69
2023-04-17T04:01:11.025Z,61.16
2023-04-17T04:04:21.366Z,61.15
2023-04-17T04:07:26.853Z,60.98
2023-04-17T04:10:29.994Z,61.78
2023-04-17T04:13:34.049Z,61.74
2023-04-17T04:16:38.346Z,61.28
2023-04-17T04:19:46.559Z,61.14
2023-04-17T04:22:49.882Z,61.53
2023-04-17T04:25:57.017Z,61.02
2023-04-17T04:29:14.023Z,61.10
2023-04-17T04:32:29.113Z,60.73
2023-04-17T04:35:31.836Z,60.36
2023-04-17T04:38:34.644Z,60.31
2023-04-17T04:41:46.329Z,60.17
2023-04-17T04:44:50.164Z,60.01
2023-04-17T04:47:54.615Z,59.95
2023-04-17T04:50:59.272Z,58.93
2023-04-17T04:54:02.398Z,59.21
2023-04-17T04:57:05.090Z,59.02
2023-04-17T05:00:09.626Z,58.40
2023-04-17T05:03:15.847Z,58.52
2023-04-17T05:06:18.615Z,58.45
2023-04-17T05:09:25.215Z,58.06
2023-04-17T05:12:31.689Z,58.13
2023-04-17T05:15:34.336Z,58.23
2023-04-17T05:18:38.739Z,58.07
2023-04-17T05:21:44.017Z,57.74
2023-04-17T05:24:49.248Z,57.98
2023-04-17T05:27:52.946Z,58.34
2023-04-17T05:30:56.028Z,57.57
2023-04-17T05:34:07.421Z,57.94
2023-04-17T05:37:10.123Z,57.58
2023-04-17T05:40:13.428Z,58.08
2023-04-17T05:43:16.137Z,58.64
2023-04-17T05:46:19.640Z,58.50
2023-04-17T05:49:22.370Z,58.27
2023-04-17T05:52:25.799Z,58.02
2023-04-17T05:55:28.287Z,57.65
2023-04-17T05:58:36.248Z,57.40
2023-04-17T06:01:40.533Z,57.59
2023-04-17T06:04:44.281Z,56.90
2023-04-17T06:07:48.221Z,57.21
2023-04-17T06:10:52.284Z,56.92
2023-04-17T06:13:54.953Z,56.35
2023-04-17T06:16:57.939Z,55.95
2023-04-17T06:20:00.691Z,55.71
2023-04-17T06:23:03.449Z,54.42
2023-04-17T06:26:06.172Z,54.03
2023-04-17T06:29:09.082Z,54.22
2023-04-17T06:32:13.755Z,54.88
2023-04-17T06:35:17.009Z,53.22
2023-04-17T06:38:24.506Z,52.98
2023-04-17T06:41:27.364Z,52.49
2023-04-17T06:44:29.861Z,52.45
2023-04-17T06:47:32.417Z,52.84
2023-04-17T06:50:35.113Z,51.85
2023-04-17T06:53:37.712Z,52.28
2023-04-17T06:56:41.021Z,52.12
2023-04-17T06:59:44.703Z,51.19
2023-04-17T07:02:48.846Z,50.53
2023-04-17T07:05:51.342Z,50.35
2023-04-17T07:08:55.600Z,50.53
2023-04-17T07:11:58.336Z,52.38
2023-04-17T07:15:00.943Z,52.52
2023-04-17T07:18:04.143Z,51.86
2023-04-17T07:21:06.955Z,52.13
2023-04-17T07:24:21.471Z,52.27
2023-04-17T07:27:26.649Z,53.83
2023-04-17T07:30:31.938Z,52.95
2023-04-17T07:33:41.351Z,53.97
2023-04-17T07:36:46.336Z,53.59
2023-04-17T07:39:53.195Z,53.92
2023-04-17T07:42:56.986Z,54.01
2023-04-17T07:46:00.411Z,54.68
2023-04-17T07:49:04.061Z,54.25
2023-04-17T07:52:06.992Z,54.48
2023-04-17T07:55:10.066Z,55.06
2023-04-17T07:58:14.350Z,54.47
2023-04-17T08:01:16.903Z,54.29
2023-04-17T08:04:19.781Z,51.60
2023-04-17T08:07:24.072Z,51.02
2023-04-17T08:10:29.534Z,49.72
2023-04-17T08:13:32.388Z,49.77
2023-04-17T08:16:35.199Z,49.76
2023-04-17T08:19:37.922Z,50.53
2023-04-17T08:22:42.965Z,49.59
2023-04-17T08:25:46.068Z,50.03
2023-04-17T08:28:48.767Z,50.33
2023-04-17T08:32:00.229Z,51.25
2023-04-17T08:35:13.701Z,50.00
2023-04-17T08:38:16.822Z,50.59
2023-04-17T08:41:25.632Z,50.04
2023-04-17T08:44:28.576Z,47.66
2023-04-17T08:47:34.523Z,48.00
2023-04-17T08:50:37.625Z,51.19
2023-04-17T08:53:40.350Z,48.96
2023-04-17T08:56:42.823Z,48.69
2023-04-17T08:59:46.859Z,49.87
2023-04-17T09:02:56.264Z,49.88
2023-04-17T09:05:59.661Z,47.68
2023-04-17T09:09:04.098Z,47.56
2023-04-17T09:12:11.879Z,48.01
2023-04-17T09:15:17.026Z,49.34
2023-04-17T09:18:26.911Z,47.09
2023-04-17T09:21:31.830Z,47.74
2023-04-17T09:24:37.931Z,47.79
2023-04-17T09:27:42.037Z,46.87
2023-04-17T09:30:48.845Z,46.06
2023-04-17T09:34:05.312Z,49.39
2023-04-17T09:37:09.647Z,47.85
2023-04-17T09:40:13.321Z,46.47
2023-04-17T09:43:23.012Z,45.36
2023-04-17T09:46:36.184Z,46.28
2023-04-17T09:49:42.929Z,46.55
2023-04-17T09:52:47.808Z,45.91
2023-04-17T09:55:53.279Z,45.62
2023-04-17T09:58:59.740Z,45.42
2023-04-17T10:02:05.155Z,44.29
2023-04-17T10:05:10.554Z,44.57
2023-04-17T10:08:13.192Z,44.66
2023-04-17T10:11:16.247Z,43.80
2023-04-17T10:14:26.738Z,46.33
2023-04-17T10:17:34.672Z,46.53
2023-04-17T10:20:38.894Z,46.31
2023-04-17T10:23:41.523Z,46.17
2023-04-17T10:26:44.068Z,46.32
2023-04-17T10:29:53.995Z,46.15
2023-04-17T10:33:15.860Z,46.55
2023-04-17T10:36:40.310Z,43.95
2023-04-17T10:40:10.877Z,44.31
2023-04-17T10:43:17.224Z,42.46
2023-04-17T10:46:19.888Z,43.02
2023-04-17T10:49:22.559Z,42.79
2023-04-17T10:52:44.837Z,43.17
2023-04-17T10:55:50.611Z,43.32
2023-04-17T10:59:04.070Z,43.06
2023-04-17T11:02:07.968Z,43.82
2023-04-17T11:05:11.446Z,43.58
2023-04-17T11:08:14.928Z,43.74
2023-04-17T11:11:23.588Z,44.88
2023-04-17T11:14:40.733Z,43.03
2023-04-17T11:17:48.189Z,43.26
2023-04-17T11:20:53.368Z,45.36
2023-04-17T11:23:56.340Z,42.97
2023-04-17T11:27:00.709Z,42.60
2023-04-17T11:30:03.428Z,42.91
2023-04-17T11:33:07.952Z,42.09
2023-04-17T11:36:10.962Z,42.63
2023-04-17T11:39:15.327Z,42.52
2023-04-17T11:42:27.399Z,42.76
2023-04-17T11:45:32.606Z,42.18
2023-04-17T11:48:35.316Z,41.34
2023-04-17T11:51:38.040Z,41.61
2023-04-17T11:54:41.210Z,41.13
2023-04-17T11:57:43.696Z,40.42
2023-04-17T12:00:46.219Z,40.59
2023-04-17T12:03:48.899Z,40.22
2023-04-17T12:06:51.522Z,39.97
2023-04-17T12:09:57.007Z,39.26
2023-04-17T12:12:59.549Z,41.91
2023-04-17T12:16:02.002Z,41.74
2023-04-17T12:19:04.634Z,40.70
2023-04-17T12:22:07.199Z,38.79
2023-04-17T12:25:09.911Z,39.92
2023-04-17T12:28:12.449Z,38.16
2023-04-17T12:31:14.965Z,38.78
2023-04-17T12:34:17.462Z,39.75
2023-04-17T12:37:19.976Z,38.66
2023-04-17T12:40:25.069Z,37.62
2023-04-17T12:43:27.687Z,35.79
2023-04-17T12:46:33.403Z,34.26
2023-04-17T12:49:35.979Z,38.07
2023-04-17T12:52:41.477Z,38.95
2023-04-17T12:55:44.525Z,39.76
2023-04-17T12:58:47.322Z,39.88
2023-04-17T13:01:49.817Z,40.69
2023-04-17T13:04:53.649Z,45.16
2023-04-17T13:07:56.888Z,49.64
2023-04-17T13:11:00.012Z,56.36
2023-04-17T13:14:02.498Z,62.51
2023-04-17T13:17:05.278Z,64.10
2023-04-17T13:20:08.464Z,66.91
2023-04-17T13:23:11.948Z,66.95
2023-04-17T13:26:14.472Z,68.51
2023-04-17T13:29:19.533Z,68.20
2023-04-17T13:32:23.182Z,67.43
2023-04-17T13:35:25.720Z,65.04
2023-04-17T13:38:28.489Z,65.87
2023-04-17T13:41:31.127Z,63.71
2023-04-17T13:44:34.561Z,62.13
2023-04-17T13:47:37.155Z,62.84
2023-04-17T13:50:39.774Z,62.99
2023-04-17T13:53:42.267Z,62.93
2023-04-17T13:56:45.960Z,60.51
2023-04-17T13:59:49.247Z,57.92
2023-04-17T14:02:52.011Z,56.52
2023-04-17T14:05:55.112Z,56.22
2023-04-17T14:08:57.781Z,56.71
2023-04-17T14:12:00.499Z,55.88
2023-04-17T14:15:03.144Z,57.01
2023-04-17T14:18:06.056Z,57.28
2023-04-17T14:21:08.550Z,55.04
2023-04-17T14:24:11.267Z,54.05
2023-04-17T14:27:13.782Z,54.78
2023-04-17T14:30:16.328Z,55.15
2023-04-17T14:33:18.882Z,55.04
2023-04-17T14:36:21.336Z,55.89
2023-04-17T14:39:23.910Z,56.68
2023-04-17T14:42:26.670Z,56.08
2023-04-17T14:45:29.660Z,55.02
2023-04-17T14:48:36.220Z,54.26
2023-04-17T14:51:43.888Z,54.88
2023-04-17T14:54:46.670Z,54.65
2023-04-17T14:57:49.514Z,53.96
2023-04-17T15:00:52.096Z,52.76
2023-04-17T15:03:55.090Z,54.32
2023-04-17T15:06:58.067Z,54.42
2023-04-17T15:10:00.670Z,54.21
2023-04-17T15:13:04.018Z,54.80
2023-04-17T15:16:08.881Z,53.12
2023-04-17T15:19:11.700Z,55.18
2023-04-17T15:22:14.501Z,54.09
2023-04-17T15:25:17.703Z,54.56
2023-04-17T15:28:20.276Z,55.42
2023-04-17T15:31:23.553Z,54.33
2023-04-17T15:34:26.370Z,54.62
2023-04-17T15:37:29.569Z,55.15
2023-04-17T15:40:34.078Z,55.47
2023-04-17T15:43:36.843Z,55.19
2023-04-17T15:46:39.527Z,55.84
2023-04-17T15:49:43.304Z,55.94
2023-04-17T15:52:45.909Z,56.12
2023-04-17T15:55:48.633Z,56.02
2023-04-17T15:58:51.139Z,56.66
2023-04-17T16:01:53.775Z,56.92
2023-04-17T16:04:56.375Z,56.68
2023-04-17T16:07:58.992Z,57.20
2023-04-17T16:11:01.535Z,56.77
2023-04-17T16:14:04.148Z,57.24
2023-04-17T16:17:06.681Z,57.17
2023-04-17T16:20:11.120Z,56.20
2023-04-17T16:23:14.496Z,56.83
2023-04-17T16:26:16.990Z,57.36
2023-04-17T16:29:19.528Z,58.02
2023-04-17T16:32:24.639Z,58.84
2023-04-17T16:35:27.901Z,59.78
2023-04-17T16:38:30.693Z,60.02
2023-04-17T16:41:33.218Z,60.53
2023-04-17T16:44:35.758Z,60.89
2023-04-17T16:47:39.011Z,61.06
2023-04-17T16:50:41.975Z,61.77
2023-04-17T16:53:44.845Z,62.16
2023-04-17T16:56:48.678Z,61.98
2023-04-17T16:59:51.112Z,62.24
2023-04-17T17:02:53.807Z,62.33
2023-04-17T17:05:57.487Z,62.38
2023-04-17T17:09:00.646Z,63.00
2023-04-17T17:12:03.965Z,63.23
2023-04-17T17:15:07.530Z,63.57
2023-04-17T17:18:10.180Z,63.59
2023-04-17T17:21:13.641Z,64.61
2023-04-17T17:24:16.364Z,65.04
2023-04-17T17:27:19.146Z,64.97
2023-04-17T17:30:21.632Z,65.24
2023-04-17T17:33:24.207Z,64.85
2023-04-17T17:36:27.038Z,64.81
2023-04-17T17:39:31.164Z,64.83
2023-04-17T17:42:34.156Z,65.42
2023-04-17T17:45:36.670Z,64.74
2023-04-17T17:48:39.829Z,64.97
2023-04-17T17:51:42.489Z,64.10
2023-04-17T17:54:45.408Z,64.42
2023-04-17T17:57:49.578Z,64.21
2023-04-17T18:00:52.515Z,63.63
2023-04-17T18:03:55.720Z,63.73
2023-04-17T18:06:58.598Z,63.87
2023-04-17T18:10:01.447Z,63.93
2023-04-17T18:13:04.029Z,64.03
2023-04-17T18:16:07.048Z,63.84
2023-04-17T18:19:09.858Z,63.88
2023-04-17T18:22:12.835Z,63.80
2023-04-17T18:25:15.640Z,63.91
2023-04-17T18:28:18.223Z,63.68
2023-04-17T18:31:22.792Z,63.80
2023-04-17T18:34:25.802Z,63.73
2023-04-17T18:37:28.982Z,63.76
2023-04-17T18:40:32.667Z,63.97
2023-04-17T18:43:35.664Z,63.94
2023-04-17T18:46:38.357Z,63.91
2023-04-17T18:49:41.255Z,63.90
2023-04-17T18:52:48.756Z,63.85
2023-04-17T18:55:53.472Z,64.26
2023-04-17T18:58:56.241Z,63.87
2023-04-17T19:01:59.369Z,64.57
2023-04-17T19:05:02.828Z,65.20
2023-04-17T19:08:05.520Z,65.05
2023-04-17T19:11:08.300Z,65.18
2023-04-17T19:14:11.331Z,65.37
2023-04-17T19:17:15.970Z,65.35
2023-04-17T19:20:19.086Z,65.72
2023-04-17T19:23:22.297Z,66.28
2023-04-17T19:26:25.258Z,65.93
2023-04-17T19:29:28.271Z,66.50
2023-04-17T19:32:31.973Z,66.73
2023-04-17T19:35:35.188Z,67.07
2023-04-17T19:38:38.821Z,66.92
2023-04-17T19:41:42.719Z,67.31
2023-04-17T19:44:46.234Z,67.53
2023-04-17T19:47:54.889Z,67.50
2023-04-17T19:51:00.054Z,67.89
2023-04-17T19:54:04.218Z,67.83
2023-04-17T19:57:06.903Z,67.42
2023-04-17T20:00:10.068Z,67.66
2023-04-17T20:03:16.129Z,67.52
2023-04-17T20:06:19.624Z,67.69
2023-04-17T20:09:23.892Z,67.90
2023-04-17T20:12:26.690Z,67.89
2023-04-17T20:15:29.201Z,67.86
2023-04-17T20:18:33.822Z,68.12
2023-04-17T20:21:36.522Z,68.51
2023-04-17T20:24:39.272Z,68.27
2023-04-17T20:27:42.107Z,68.29
2023-04-17T20:30:44.810Z,68.67
2023-04-17T20:33:47.748Z,68.80
2023-04-17T20:36:50.351Z,69.08
2023-04-17T20:39:52.922Z,69.35
2023-04-17T20:42:55.473Z,69.29
2023-04-17T20:45:59.231Z,69.24
2023-04-17T20:49:01.701Z,69.82
2023-04-17T20:52:04.325Z,69.91
2023-04-17T20:55:07.576Z,70.43
2023-04-17T20:58:10.330Z,70.61
2023-04-17T21:01:12.930Z,70.81
2023-04-17T21:04:16.337Z,71.13
2023-04-17T21:07:19.505Z,71.61
2023-04-17T21:10:22.155Z,72.10
2023-04-17T21:13:24.712Z,72.67
2023-04-17T21:16:27.321Z,72.14
2023-04-17T21:19:30.892Z,71.58
2023-04-17T21:22:33.834Z,71.87
2023-04-17T21:25:36.431Z,72.17
2023-04-17T21:28:39.054Z,72.77
2023-04-17T21:31:42.732Z,73.22
2023-04-17T21:34:45.590Z,73.22
2023-04-17T21:37:48.169Z,73.79
2023-04-17T21:40:51.700Z,74.37
2023-04-17T21:43:54.619Z,74.97
2023-04-17T21:46:57.108Z,74.93
2023-04-17T21:50:00.526Z,75.00
2023-04-17T21:53:03.318Z,75.23
2023-04-17T21:56:07.093Z,75.14
2023-04-17T21:59:09.798Z,75.00
2023-04-17T22:02:12.641Z,74.85
2023-04-17T22:05:15.220Z,75.00
2023-04-17T22:08:17.692Z,74.96
2023-04-17T22:11:20.560Z,75.07
2023-04-17T22:14:23.092Z,75.16
2023-04-17T22:17:25.589Z,74.90
2023-04-17T22:20:28.217Z,74.50
2023-04-17T22:23:30.951Z,74.61
2023-04-17T22:26:33.487Z,74.39
2023-04-17T22:29:36.902Z,74.10
2023-04-17T22:32:39.516Z,74.07
2023-04-17T22:35:42.017Z,74.42
2023-04-17T22:38:44.637Z,74.07
2023-04-17T22:41:47.116Z,74.10
2023-04-17T22:44:50.325Z,74.14
2023-04-17T22:47:52.851Z,73.65
2023-04-17T22:50:56.536Z,73.29
2023-04-17T22:54:15.251Z,73.89
2023-04-17T22:57:21.590Z,75.75
2023-04-17T23:00:25.432Z,77.62
2023-04-17T23:03:28.158Z,77.67
2023-04-17T23:06:32.180Z,78.17
2023-04-17T23:09:34.749Z,78.39
2023-04-17T23:12:37.400Z,79.07
2023-04-17T23:15:39.970Z,79.11
2023-04-17T23:18:42.534Z,79.36
2023-04-17T23:21:44.992Z,80.15
2023-04-17T23:24:47.983Z,79.99
2023-04-17T23:27:50.501Z,79.78
2023-04-17T23:30:52.976Z,80.22
2023-04-17T23:33:55.451Z,80.39
2023-04-17T23:36:58.006Z,80.63
2023-04-17T23:40:01.386Z,81.07
2023-04-17T23:43:04.282Z,81.13
2023-04-17T23:46:07.008Z,81.74
2023-04-17T23:49:10.015Z,82.15
2023-04-17T23:52:12.607Z,81.66
2023-04-17T23:55:15.407Z,81.81
2023-04-17T23:58:17.843Z,81.89
